sensor_id;sensor_type;location;lat;lon;timestamp;P1;durP1;ratioP1;P2;durP2;ratioP2
2934;SDS011;2462;51.456;7.248;2024-01-15T00:02:19;12.43;;;10.00;;
2934;SDS011;2462;51.456;7.248;2024-01-15T00:04:45;12.50;;;10.07;;
2934;SDS011;2462;51.456;7.248;2024-01-15T00:07:11;12.00;;;9.43;;
2934;SDS011;2462;51.456;7.248;2024-01-15T00:09:36;12.40;;;9.33;;
2934;SDS011;2462;51.456;7.248;2024-01-15T00:12:02;12.93;;;9.53;;
2934;SDS011;2462;51.456;7.248;2024-01-15T00:14:28;14.10;;;10.17;;
2934;SDS011;2462;51.456;7.248;2024-01-15T00:16:54;13.47;;;10.20;;
2934;SDS011;2462;51.456;7.248;2024-01-15T00:19:21;12.83;;;9.70;;
2934;SDS011;2462;51.456;7.248;2024-01-15T00:21:48;16.10;;;10.83;;
2934;SDS011;2462;51.456;7.248;2024-01-15T00:24:14;14.07;;;10.40;;
2934;SDS011;2462;51.456;7.248;2024-01-15T00:26:40;14.23;;;10.97;;
2934;SDS011;2462;51.456;7.248;2024-01-15T00:29:06;14.63;;;10.03;;
2934;SDS011;2462;51.456;7.248;2024-01-15T00:31:33;13.27;;;10.10;;
2934;SDS011;2462;51.456;7.248;2024-01-15T00:33:58;13.90;;;10.90;;
2934;SDS011;2462;51.456;7.248;2024-01-15T00:36:24;15.70;;;11.83;;
2934;SDS011;2462;51.456;7.248;2024-01-15T00:38:50;15.70;;;11.60;;
2934;SDS011;2462;51.456;7.248;2024-01-15T00:41:17;13.23;;;10.27;;
2934;SDS011;2462;51.456;7.248;2024-01-15T00:43:43;13.37;;;10.07;;
2934;SDS011;2462;51.456;7.248;2024-01-15T00:46:10;12.77;;;9.60;;
2934;SDS011;2462;51.456;7.248;2024-01-15T00:48:36;15.33;;;10.20;;
2934;SDS011;2462;51.456;7.248;2024-01-15T00:51:02;13.30;;;10.53;;
2934;SDS011;2462;51.456;7.248;2024-01-15T00:53:28;14.27;;;11.50;;
2934;SDS011;2462;51.456;7.248;2024-01-15T00:55:54;12.03;;;9.13;;
2934;SDS011;2462;51.456;7.248;2024-01-15T00:58:20;16.03;;;12.43;;
2934;SDS011;2462;51.456;7.248;2024-01-15T01:00:46;13.47;;;11.07;;
2934;SDS011;2462;51.456;7.248;2024-01-15T01:03:11;13.30;;;10.43;;
2934;SDS011;2462;51.456;7.248;2024-01-15T01:05:37;13.67;;;10.90;;
2934;SDS011;2462;51.456;7.248;2024-01-15T01:08:03;16.60;;;10.70;;
2934;SDS011;2462;51.456;7.248;2024-01-15T01:10:29;13.33;;;9.97;;
2934;SDS011;2462;51.456;7.248;2024-01-15T01:12:56;17.20;;;10.60;;
2934;SDS011;2462;51.456;7.248;2024-01-15T01:15:22;14.00;;;10.33;;
2934;SDS011;2462;51.456;7.248;2024-01-15T01:17:49;12.27;;;9.90;;
2934;SDS011;2462;51.456;7.248;2024-01-15T01:20:15;13.27;;;10.20;;
2934;SDS011;2462;51.456;7.248;2024-01-15T01:22:41;13.40;;;9.70;;
2934;SDS011;2462;51.456;7.248;2024-01-15T01:25:07;10.50;;;9.10;;
2934;SDS011;2462;51.456;7.248;2024-01-15T01:27:34;12.47;;;9.97;;
2934;SDS011;2462;51.456;7.248;2024-01-15T01:30:00;13.53;;;10.53;;
2934;SDS011;2462;51.456;7.248;2024-01-15T01:32:26;11.60;;;9.80;;
2934;SDS011;2462;51.456;7.248;2024-01-15T01:34:52;12.77;;;10.23;;
2934;SDS011;2462;51.456;7.248;2024-01-15T01:37:18;13.03;;;9.90;;
2934;SDS011;2462;51.456;7.248;2024-01-15T01:39:44;11.63;;;9.13;;
2934;SDS011;2462;51.456;7.248;2024-01-15T01:42:10;15.90;;;11.83;;
2934;SDS011;2462;51.456;7.248;2024-01-15T01:44:36;15.13;;;9.70;;
2934;SDS011;2462;51.456;7.248;2024-01-15T01:47:04;11.70;;;9.30;;
2934;SDS011;2462;51.456;7.248;2024-01-15T01:49:31;11.43;;;9.27;;
2934;SDS011;2462;51.456;7.248;2024-01-15T01:51:58;13.10;;;9.73;;
2934;SDS011;2462;51.456;7.248;2024-01-15T01:54:24;12.17;;;9.27;;
2934;SDS011;2462;51.456;7.248;2024-01-15T01:56:51;13.50;;;9.87;;
2934;SDS011;2462;51.456;7.248;2024-01-15T01:59:17;15.77;;;10.30;;
2934;SDS011;2462;51.456;7.248;2024-01-15T02:01:43;12.97;;;9.80;;
2934;SDS011;2462;51.456;7.248;2024-01-15T02:04:10;14.67;;;10.30;;
2934;SDS011;2462;51.456;7.248;2024-01-15T02:06:36;15.23;;;11.60;;
2934;SDS011;2462;51.456;7.248;2024-01-15T02:09:02;16.30;;;10.50;;
2934;SDS011;2462;51.456;7.248;2024-01-15T02:11:30;13.93;;;9.90;;
2934;SDS011;2462;51.456;7.248;2024-01-15T02:13:56;14.33;;;10.83;;
2934;SDS011;2462;51.456;7.248;2024-01-15T02:16:22;13.00;;;9.53;;
2934;SDS011;2462;51.456;7.248;2024-01-15T02:18:48;13.87;;;9.90;;
2934;SDS011;2462;51.456;7.248;2024-01-15T02:21:14;13.30;;;9.53;;
2934;SDS011;2462;51.456;7.248;2024-01-15T02:23:40;12.83;;;9.60;;
2934;SDS011;2462;51.456;7.248;2024-01-15T02:26:06;14.40;;;10.23;;
2934;SDS011;2462;51.456;7.248;2024-01-15T02:28:33;11.60;;;9.90;;
2934;SDS011;2462;51.456;7.248;2024-01-15T02:30:59;13.60;;;10.07;;
2934;SDS011;2462;51.456;7.248;2024-01-15T02:33:25;13.00;;;9.10;;
2934;SDS011;2462;51.456;7.248;2024-01-15T02:35:51;14.10;;;11.20;;
2934;SDS011;2462;51.456;7.248;2024-01-15T02:38:17;11.97;;;9.27;;
2934;SDS011;2462;51.456;7.248;2024-01-15T02:40:43;13.70;;;10.37;;
2934;SDS011;2462;51.456;7.248;2024-01-15T02:43:09;14.27;;;9.90;;
2934;SDS011;2462;51.456;7.248;2024-01-15T02:45:35;11.87;;;9.17;;
2934;SDS011;2462;51.456;7.248;2024-01-15T02:48:01;15.70;;;10.10;;
2934;SDS011;2462;51.456;7.248;2024-01-15T02:50:27;12.73;;;9.60;;
2934;SDS011;2462;51.456;7.248;2024-01-15T02:52:53;12.37;;;9.40;;
2934;SDS011;2462;51.456;7.248;2024-01-15T02:55:19;13.60;;;9.70;;
2934;SDS011;2462;51.456;7.248;2024-01-15T02:57:45;14.07;;;10.20;;
2934;SDS011;2462;51.456;7.248;2024-01-15T03:00:11;14.07;;;8.93;;
2934;SDS011;2462;51.456;7.248;2024-01-15T03:02:37;14.13;;;10.50;;
2934;SDS011;2462;51.456;7.248;2024-01-15T03:05:10;11.83;;;9.30;;
2934;SDS011;2462;51.456;7.248;2024-01-15T03:07:36;13.27;;;9.07;;
2934;SDS011;2462;51.456;7.248;2024-01-15T03:10:02;12.03;;;9.00;;
2934;SDS011;2462;51.456;7.248;2024-01-15T03:12:28;16.90;;;9.17;;
2934;SDS011;2462;51.456;7.248;2024-01-15T03:14:54;10.53;;;8.30;;
2934;SDS011;2462;51.456;7.248;2024-01-15T03:17:19;13.27;;;10.23;;
2934;SDS011;2462;51.456;7.248;2024-01-15T03:19:45;11.80;;;9.10;;
2934;SDS011;2462;51.456;7.248;2024-01-15T03:22:11;11.37;;;8.87;;
2934;SDS011;2462;51.456;7.248;2024-01-15T03:24:37;12.00;;;9.50;;
2934;SDS011;2462;51.456;7.248;2024-01-15T03:27:03;10.40;;;8.07;;
2934;SDS011;2462;51.456;7.248;2024-01-15T03:29:29;13.40;;;8.70;;
2934;SDS011;2462;51.456;7.248;2024-01-15T03:31:55;11.93;;;9.50;;
2934;SDS011;2462;51.456;7.248;2024-01-15T03:34:21;9.43;;;8.27;;
2934;SDS011;2462;51.456;7.248;2024-01-15T03:36:47;11.17;;;7.90;;
2934;SDS011;2462;51.456;7.248;2024-01-15T03:39:13;10.33;;;7.77;;
2934;SDS011;2462;51.456;7.248;2024-01-15T03:41:39;11.17;;;8.73;;
2934;SDS011;2462;51.456;7.248;2024-01-15T03:44:04;11.00;;;8.37;;
2934;SDS011;2462;51.456;7.248;2024-01-15T03:46:30;10.87;;;8.63;;
2934;SDS011;2462;51.456;7.248;2024-01-15T03:48:56;10.27;;;8.07;;
2934;SDS011;2462;51.456;7.248;2024-01-15T03:51:22;12.13;;;8.20;;
2934;SDS011;2462;51.456;7.248;2024-01-15T03:53:48;10.70;;;8.47;;
2934;SDS011;2462;51.456;7.248;2024-01-15T03:56:14;13.13;;;9.17;;
2934;SDS011;2462;51.456;7.248;2024-01-15T03:58:40;11.90;;;8.57;;
2934;SDS011;2462;51.456;7.248;2024-01-15T04:01:07;9.50;;;8.37;;
2934;SDS011;2462;51.456;7.248;2024-01-15T04:03:33;11.53;;;8.93;;
2934;SDS011;2462;51.456;7.248;2024-01-15T04:05:59;11.53;;;9.03;;
2934;SDS011;2462;51.456;7.248;2024-01-15T04:08:25;11.03;;;8.03;;
2934;SDS011;2462;51.456;7.248;2024-01-15T04:10:51;11.00;;;9.10;;
2934;SDS011;2462;51.456;7.248;2024-01-15T04:13:17;11.00;;;8.20;;
2934;SDS011;2462;51.456;7.248;2024-01-15T04:15:43;11.20;;;8.10;;
2934;SDS011;2462;51.456;7.248;2024-01-15T04:18:09;9.60;;;7.37;;
2934;SDS011;2462;51.456;7.248;2024-01-15T04:20:34;12.50;;;9.30;;
2934;SDS011;2462;51.456;7.248;2024-01-15T04:23:00;12.57;;;7.83;;
2934;SDS011;2462;51.456;7.248;2024-01-15T04:25:26;9.50;;;7.20;;
2934;SDS011;2462;51.456;7.248;2024-01-15T04:27:52;10.20;;;7.77;;
2934;SDS011;2462;51.456;7.248;2024-01-15T04:30:18;9.80;;;7.30;;
2934;SDS011;2462;51.456;7.248;2024-01-15T04:32:44;10.50;;;7.87;;
2934;SDS011;2462;51.456;7.248;2024-01-15T04:35:10;10.50;;;7.47;;
2934;SDS011;2462;51.456;7.248;2024-01-15T04:37:37;10.10;;;7.53;;
2934;SDS011;2462;51.456;7.248;2024-01-15T04:40:03;10.50;;;8.10;;
2934;SDS011;2462;51.456;7.248;2024-01-15T04:42:29;9.80;;;7.67;;
2934;SDS011;2462;51.456;7.248;2024-01-15T04:44:55;8.67;;;6.77;;
2934;SDS011;2462;51.456;7.248;2024-01-15T04:47:21;9.27;;;6.40;;
2934;SDS011;2462;51.456;7.248;2024-01-15T04:49:47;11.43;;;7.53;;
2934;SDS011;2462;51.456;7.248;2024-01-15T04:52:14;9.53;;;6.90;;
2934;SDS011;2462;51.456;7.248;2024-01-15T04:54:40;9.53;;;7.53;;
2934;SDS011;2462;51.456;7.248;2024-01-15T04:57:05;9.30;;;7.67;;
2934;SDS011;2462;51.456;7.248;2024-01-15T04:59:31;11.93;;;7.27;;
2934;SDS011;2462;51.456;7.248;2024-01-15T05:01:57;11.20;;;7.40;;
2934;SDS011;2462;51.456;7.248;2024-01-15T05:04:23;9.17;;;6.30;;
2934;SDS011;2462;51.456;7.248;2024-01-15T05:06:50;10.60;;;7.20;;
2934;SDS011;2462;51.456;7.248;2024-01-15T05:09:16;7.87;;;6.10;;
2934;SDS011;2462;51.456;7.248;2024-01-15T05:11:42;9.00;;;6.80;;
2934;SDS011;2462;51.456;7.248;2024-01-15T05:14:08;8.40;;;7.37;;
2934;SDS011;2462;51.456;7.248;2024-01-15T05:16:34;11.20;;;7.33;;
2934;SDS011;2462;51.456;7.248;2024-01-15T05:19:00;8.43;;;6.70;;
2934;SDS011;2462;51.456;7.248;2024-01-15T05:21:26;10.90;;;7.33;;
2934;SDS011;2462;51.456;7.248;2024-01-15T05:23:52;8.33;;;6.90;;
2934;SDS011;2462;51.456;7.248;2024-01-15T05:26:18;9.20;;;6.53;;
2934;SDS011;2462;51.456;7.248;2024-01-15T05:28:44;8.17;;;6.77;;
2934;SDS011;2462;51.456;7.248;2024-01-15T05:31:10;7.40;;;6.57;;
2934;SDS011;2462;51.456;7.248;2024-01-15T05:33:36;9.20;;;7.37;;
2934;SDS011;2462;51.456;7.248;2024-01-15T05:36:02;8.70;;;6.60;;
2934;SDS011;2462;51.456;7.248;2024-01-15T05:38:28;10.87;;;7.00;;
2934;SDS011;2462;51.456;7.248;2024-01-15T05:40:54;8.00;;;6.43;;
2934;SDS011;2462;51.456;7.248;2024-01-15T05:43:20;8.40;;;6.40;;
2934;SDS011;2462;51.456;7.248;2024-01-15T05:45:46;9.00;;;6.07;;
2934;SDS011;2462;51.456;7.248;2024-01-15T05:48:12;7.00;;;6.30;;
2934;SDS011;2462;51.456;7.248;2024-01-15T05:50:38;12.60;;;7.47;;
2934;SDS011;2462;51.456;7.248;2024-01-15T05:53:04;9.63;;;6.50;;
2934;SDS011;2462;51.456;7.248;2024-01-15T05:55:30;7.50;;;6.23;;
2934;SDS011;2462;51.456;7.248;2024-01-15T05:57:56;7.67;;;6.63;;
2934;SDS011;2462;51.456;7.248;2024-01-15T06:00:22;6.23;;;5.63;;
2934;SDS011;2462;51.456;7.248;2024-01-15T06:02:48;8.00;;;7.20;;
2934;SDS011;2462;51.456;7.248;2024-01-15T06:05:13;10.00;;;6.67;;
2934;SDS011;2462;51.456;7.248;2024-01-15T06:07:40;9.13;;;6.60;;
2934;SDS011;2462;51.456;7.248;2024-01-15T06:10:06;10.37;;;6.30;;
2934;SDS011;2462;51.456;7.248;2024-01-15T06:12:32;9.73;;;6.40;;
2934;SDS011;2462;51.456;7.248;2024-01-15T06:14:58;6.60;;;5.60;;
2934;SDS011;2462;51.456;7.248;2024-01-15T06:17:24;8.50;;;6.97;;
2934;SDS011;2462;51.456;7.248;2024-01-15T06:19:50;7.90;;;6.30;;
2934;SDS011;2462;51.456;7.248;2024-01-15T06:22:16;6.07;;;5.47;;
2934;SDS011;2462;51.456;7.248;2024-01-15T06:24:42;8.90;;;7.13;;
2934;SDS011;2462;51.456;7.248;2024-01-15T06:27:08;8.47;;;6.90;;
2934;SDS011;2462;51.456;7.248;2024-01-15T06:29:37;8.97;;;6.53;;
2934;SDS011;2462;51.456;7.248;2024-01-15T06:32:03;8.00;;;7.00;;
2934;SDS011;2462;51.456;7.248;2024-01-15T06:34:29;8.53;;;5.90;;
2934;SDS011;2462;51.456;7.248;2024-01-15T06:36:54;7.83;;;5.97;;
2934;SDS011;2462;51.456;7.248;2024-01-15T06:39:22;9.00;;;6.60;;
2934;SDS011;2462;51.456;7.248;2024-01-15T06:41:47;6.60;;;5.90;;
2934;SDS011;2462;51.456;7.248;2024-01-15T06:44:13;10.40;;;6.00;;
2934;SDS011;2462;51.456;7.248;2024-01-15T06:46:43;7.53;;;6.10;;
2934;SDS011;2462;51.456;7.248;2024-01-15T06:49:09;7.20;;;6.20;;
2934;SDS011;2462;51.456;7.248;2024-01-15T06:51:35;7.00;;;5.47;;
2934;SDS011;2462;51.456;7.248;2024-01-15T06:54:01;6.93;;;5.18;;
2934;SDS011;2462;51.456;7.248;2024-01-15T06:56:27;6.53;;;5.83;;
2934;SDS011;2462;51.456;7.248;2024-01-15T06:58:53;6.37;;;5.50;;
2934;SDS011;2462;51.456;7.248;2024-01-15T07:01:19;7.00;;;5.90;;
2934;SDS011;2462;51.456;7.248;2024-01-15T07:03:45;5.80;;;5.13;;
2934;SDS011;2462;51.456;7.248;2024-01-15T07:06:11;6.37;;;5.37;;
2934;SDS011;2462;51.456;7.248;2024-01-15T07:08:38;7.30;;;5.77;;
2934;SDS011;2462;51.456;7.248;2024-01-15T07:11:04;7.67;;;6.20;;
2934;SDS011;2462;51.456;7.248;2024-01-15T07:13:30;8.03;;;6.17;;
2934;SDS011;2462;51.456;7.248;2024-01-15T07:15:56;5.70;;;5.10;;
2934;SDS011;2462;51.456;7.248;2024-01-15T07:18:23;6.63;;;5.77;;
2934;SDS011;2462;51.456;7.248;2024-01-15T07:20:50;6.50;;;5.60;;
2934;SDS011;2462;51.456;7.248;2024-01-15T07:23:16;6.40;;;5.13;;
2934;SDS011;2462;51.456;7.248;2024-01-15T07:25:42;5.87;;;5.37;;
2934;SDS011;2462;51.456;7.248;2024-01-15T07:28:08;5.97;;;5.37;;
2934;SDS011;2462;51.456;7.248;2024-01-15T07:30:34;5.90;;;5.27;;
2934;SDS011;2462;51.456;7.248;2024-01-15T07:33:03;5.80;;;5.30;;
2934;SDS011;2462;51.456;7.248;2024-01-15T07:35:29;5.73;;;4.93;;
2934;SDS011;2462;51.456;7.248;2024-01-15T07:37:55;5.47;;;4.97;;
2934;SDS011;2462;51.456;7.248;2024-01-15T07:40:21;6.63;;;5.50;;
2934;SDS011;2462;51.456;7.248;2024-01-15T07:42:47;6.00;;;5.03;;
2934;SDS011;2462;51.456;7.248;2024-01-15T07:45:13;5.23;;;4.80;;
2934;SDS011;2462;51.456;7.248;2024-01-15T07:47:39;5.60;;;4.90;;
2934;SDS011;2462;51.456;7.248;2024-01-15T07:50:05;5.47;;;4.97;;
2934;SDS011;2462;51.456;7.248;2024-01-15T07:52:31;5.60;;;4.70;;
2934;SDS011;2462;51.456;7.248;2024-01-15T07:54:57;4.53;;;4.13;;
2934;SDS011;2462;51.456;7.248;2024-01-15T07:57:29;4.80;;;4.00;;
2934;SDS011;2462;51.456;7.248;2024-01-15T07:59:56;5.60;;;4.20;;
2934;SDS011;2462;51.456;7.248;2024-01-15T08:02:22;4.23;;;3.80;;
2934;SDS011;2462;51.456;7.248;2024-01-15T08:04:48;5.50;;;4.47;;
2934;SDS011;2462;51.456;7.248;2024-01-15T08:07:14;4.30;;;3.90;;
2934;SDS011;2462;51.456;7.248;2024-01-15T08:09:40;4.87;;;4.37;;
2934;SDS011;2462;51.456;7.248;2024-01-15T08:12:06;4.00;;;3.60;;
2934;SDS011;2462;51.456;7.248;2024-01-15T08:14:32;4.20;;;3.80;;
2934;SDS011;2462;51.456;7.248;2024-01-15T08:16:58;4.13;;;3.83;;
2934;SDS011;2462;51.456;7.248;2024-01-15T08:19:24;3.97;;;3.67;;
2934;SDS011;2462;51.456;7.248;2024-01-15T08:21:51;4.00;;;3.70;;
2934;SDS011;2462;51.456;7.248;2024-01-15T08:24:18;4.43;;;4.03;;
2934;SDS011;2462;51.456;7.248;2024-01-15T08:26:45;4.47;;;4.17;;
2934;SDS011;2462;51.456;7.248;2024-01-15T08:29:11;4.53;;;4.13;;
2934;SDS011;2462;51.456;7.248;2024-01-15T08:31:37;4.70;;;4.23;;
2934;SDS011;2462;51.456;7.248;2024-01-15T08:34:03;4.57;;;3.50;;
2934;SDS011;2462;51.456;7.248;2024-01-15T08:36:29;6.20;;;4.10;;
2934;SDS011;2462;51.456;7.248;2024-01-15T08:38:57;4.40;;;4.00;;
2934;SDS011;2462;51.456;7.248;2024-01-15T08:41:23;4.13;;;3.77;;
2934;SDS011;2462;51.456;7.248;2024-01-15T08:43:49;4.20;;;3.90;;
2934;SDS011;2462;51.456;7.248;2024-01-15T08:46:16;4.33;;;3.33;;
2934;SDS011;2462;51.456;7.248;2024-01-15T08:48:42;4.40;;;3.83;;
2934;SDS011;2462;51.456;7.248;2024-01-15T08:51:08;4.97;;;3.60;;
2934;SDS011;2462;51.456;7.248;2024-01-15T08:53:34;4.60;;;4.20;;
2934;SDS011;2462;51.456;7.248;2024-01-15T08:55:59;4.80;;;4.17;;
2934;SDS011;2462;51.456;7.248;2024-01-15T08:58:25;4.23;;;3.93;;
2934;SDS011;2462;51.456;7.248;2024-01-15T09:00:52;4.77;;;3.87;;
2934;SDS011;2462;51.456;7.248;2024-01-15T09:03:18;5.17;;;4.40;;
2934;SDS011;2462;51.456;7.248;2024-01-15T09:05:44;4.70;;;4.20;;
2934;SDS011;2462;51.456;7.248;2024-01-15T09:08:10;4.50;;;4.10;;
2934;SDS011;2462;51.456;7.248;2024-01-15T09:10:36;4.30;;;3.90;;
2934;SDS011;2462;51.456;7.248;2024-01-15T09:13:02;4.70;;;3.67;;
2934;SDS011;2462;51.456;7.248;2024-01-15T09:15:29;4.47;;;4.00;;
2934;SDS011;2462;51.456;7.248;2024-01-15T09:17:55;3.73;;;3.43;;
2934;SDS011;2462;51.456;7.248;2024-01-15T09:20:23;5.43;;;4.27;;
2934;SDS011;2462;51.456;7.248;2024-01-15T09:22:51;5.43;;;4.93;;
2934;SDS011;2462;51.456;7.248;2024-01-15T09:25:16;4.63;;;4.20;;
2934;SDS011;2462;51.456;7.248;2024-01-15T09:27:44;4.13;;;3.83;;
2934;SDS011;2462;51.456;7.248;2024-01-15T09:30:10;5.70;;;3.93;;
2934;SDS011;2462;51.456;7.248;2024-01-15T09:32:36;5.37;;;4.17;;
2934;SDS011;2462;51.456;7.248;2024-01-15T09:35:03;3.70;;;3.40;;
2934;SDS011;2462;51.456;7.248;2024-01-15T09:37:29;5.20;;;4.10;;
2934;SDS011;2462;51.456;7.248;2024-01-15T09:39:56;4.40;;;4.00;;
2934;SDS011;2462;51.456;7.248;2024-01-15T09:42:26;6.10;;;5.50;;
2934;SDS011;2462;51.456;7.248;2024-01-15T09:44:52;4.47;;;3.83;;
2934;SDS011;2462;51.456;7.248;2024-01-15T09:47:18;4.00;;;3.60;;
2934;SDS011;2462;51.456;7.248;2024-01-15T09:49:45;3.97;;;3.67;;
2934;SDS011;2462;51.456;7.248;2024-01-15T09:52:14;4.00;;;3.70;;
2934;SDS011;2462;51.456;7.248;2024-01-15T09:54:43;4.40;;;4.00;;
2934;SDS011;2462;51.456;7.248;2024-01-15T09:57:09;3.17;;;2.97;;
2934;SDS011;2462;51.456;7.248;2024-01-15T09:59:35;3.60;;;3.30;;
2934;SDS011;2462;51.456;7.248;2024-01-15T10:02:02;6.03;;;3.80;;
2934;SDS011;2462;51.456;7.248;2024-01-15T10:04:28;3.50;;;3.20;;
2934;SDS011;2462;51.456;7.248;2024-01-15T10:06:54;3.33;;;3.13;;
2934;SDS011;2462;51.456;7.248;2024-01-15T10:09:22;3.63;;;3.33;;
2934;SDS011;2462;51.456;7.248;2024-01-15T10:11:48;4.00;;;3.70;;
2934;SDS011;2462;51.456;7.248;2024-01-15T10:14:14;3.73;;;3.33;;
2934;SDS011;2462;51.456;7.248;2024-01-15T10:16:40;3.50;;;3.20;;
2934;SDS011;2462;51.456;7.248;2024-01-15T10:19:11;4.83;;;3.43;;
2934;SDS011;2462;51.456;7.248;2024-01-15T10:21:37;3.40;;;3.20;;
2934;SDS011;2462;51.456;7.248;2024-01-15T10:24:04;3.97;;;3.33;;
2934;SDS011;2462;51.456;7.248;2024-01-15T10:26:30;2.87;;;2.67;;
2934;SDS011;2462;51.456;7.248;2024-01-15T10:28:56;3.40;;;3.10;;
2934;SDS011;2462;51.456;7.248;2024-01-15T10:31:24;3.40;;;3.13;;
2934;SDS011;2462;51.456;7.248;2024-01-15T10:33:50;3.33;;;3.13;;
2934;SDS011;2462;51.456;7.248;2024-01-15T10:36:17;3.60;;;3.30;;
2934;SDS011;2462;51.456;7.248;2024-01-15T10:38:43;3.83;;;3.33;;
2934;SDS011;2462;51.456;7.248;2024-01-15T10:41:11;3.50;;;3.20;;
2934;SDS011;2462;51.456;7.248;2024-01-15T10:43:37;2.83;;;2.63;;
2934;SDS011;2462;51.456;7.248;2024-01-15T10:46:04;3.67;;;3.37;;
2934;SDS011;2462;51.456;7.248;2024-01-15T10:48:31;3.13;;;2.83;;
2934;SDS011;2462;51.456;7.248;2024-01-15T10:50:57;3.45;;;3.25;;
2934;SDS011;2462;51.456;7.248;2024-01-15T10:53:23;3.57;;;3.27;;
2934;SDS011;2462;51.456;7.248;2024-01-15T10:55:53;3.33;;;3.10;;
2934;SDS011;2462;51.456;7.248;2024-01-15T10:58:21;2.80;;;2.60;;
2934;SDS011;2462;51.456;7.248;2024-01-15T11:00:48;2.95;;;2.60;;
2934;SDS011;2462;51.456;7.248;2024-01-15T11:03:14;3.57;;;3.27;;
2934;SDS011;2462;51.456;7.248;2024-01-15T11:05:42;3.47;;;3.17;;
2934;SDS011;2462;51.456;7.248;2024-01-15T11:08:08;19.45;;;4.00;;
2934;SDS011;2462;51.456;7.248;2024-01-15T11:10:41;3.30;;;3.00;;
2934;SDS011;2462;51.456;7.248;2024-01-15T11:18:31;6.10;;;2.80;;
2934;SDS011;2462;51.456;7.248;2024-01-15T11:26:29;2.83;;;2.63;;
2934;SDS011;2462;51.456;7.248;2024-01-15T11:28:55;6.93;;;2.60;;
2934;SDS011;2462;51.456;7.248;2024-01-15T11:31:28;3.27;;;2.43;;
2934;SDS011;2462;51.456;7.248;2024-01-15T11:33:54;4.00;;;2.93;;
2934;SDS011;2462;51.456;7.248;2024-01-15T11:36:42;5.60;;;2.67;;
2934;SDS011;2462;51.456;7.248;2024-01-15T11:39:39;3.57;;;2.60;;
2934;SDS011;2462;51.456;7.248;2024-01-15T11:42:03;2.67;;;2.47;;
2934;SDS011;2462;51.456;7.248;2024-01-15T11:44:29;2.93;;;2.73;;
2934;SDS011;2462;51.456;7.248;2024-01-15T11:46:59;3.30;;;2.47;;
2934;SDS011;2462;51.456;7.248;2024-01-15T11:51:53;3.50;;;3.20;;
2934;SDS011;2462;51.456;7.248;2024-01-15T11:54:21;3.80;;;2.83;;
2934;SDS011;2462;51.456;7.248;2024-01-15T11:56:49;4.30;;;2.63;;
2934;SDS011;2462;51.456;7.248;2024-01-15T11:59:17;3.47;;;2.50;;
2934;SDS011;2462;51.456;7.248;2024-01-15T12:01:43;9.20;;;3.27;;
2934;SDS011;2462;51.456;7.248;2024-01-15T12:04:10;9.83;;;2.93;;
2934;SDS011;2462;51.456;7.248;2024-01-15T12:06:36;4.20;;;2.80;;
2934;SDS011;2462;51.456;7.248;2024-01-15T12:09:06;2.60;;;2.33;;
2934;SDS011;2462;51.456;7.248;2024-01-15T12:11:33;2.77;;;2.57;;
2934;SDS011;2462;51.456;7.248;2024-01-15T12:14:00;2.80;;;2.60;;
2934;SDS011;2462;51.456;7.248;2024-01-15T12:16:26;3.60;;;2.50;;
2934;SDS011;2462;51.456;7.248;2024-01-15T12:18:53;2.60;;;2.40;;
2934;SDS011;2462;51.456;7.248;2024-01-15T12:21:20;2.80;;;2.60;;
2934;SDS011;2462;51.456;7.248;2024-01-15T12:23:48;2.70;;;2.50;;
2934;SDS011;2462;51.456;7.248;2024-01-15T12:26:17;3.43;;;2.33;;
2934;SDS011;2462;51.456;7.248;2024-01-15T12:28:43;2.63;;;1.60;;
2934;SDS011;2462;51.456;7.248;2024-01-15T12:31:09;4.23;;;2.47;;
2934;SDS011;2462;51.456;7.248;2024-01-15T12:33:35;3.10;;;2.00;;
2934;SDS011;2462;51.456;7.248;2024-01-15T12:36:01;4.03;;;2.03;;
2934;SDS011;2462;51.456;7.248;2024-01-15T12:38:28;2.00;;;1.90;;
2934;SDS011;2462;51.456;7.248;2024-01-15T12:40:54;2.00;;;1.80;;
2934;SDS011;2462;51.456;7.248;2024-01-15T12:43:21;2.67;;;2.47;;
2934;SDS011;2462;51.456;7.248;2024-01-15T12:45:47;2.97;;;2.30;;
2934;SDS011;2462;51.456;7.248;2024-01-15T12:48:13;3.47;;;2.00;;
2934;SDS011;2462;51.456;7.248;2024-01-15T12:50:42;2.50;;;2.30;;
2934;SDS011;2462;51.456;7.248;2024-01-15T12:53:09;2.33;;;1.97;;
2934;SDS011;2462;51.456;7.248;2024-01-15T12:55:34;3.10;;;2.10;;
2934;SDS011;2462;51.456;7.248;2024-01-15T12:58:00;2.90;;;2.00;;
2934;SDS011;2462;51.456;7.248;2024-01-15T13:00:26;5.23;;;1.97;;
2934;SDS011;2462;51.456;7.248;2024-01-15T13:02:52;3.60;;;1.83;;
2934;SDS011;2462;51.456;7.248;2024-01-15T13:05:19;3.70;;;2.20;;
2934;SDS011;2462;51.456;7.248;2024-01-15T13:07:46;3.63;;;2.50;;
2934;SDS011;2462;51.456;7.248;2024-01-15T13:10:12;2.97;;;2.50;;
2934;SDS011;2462;51.456;7.248;2024-01-15T13:12:39;1.93;;;1.70;;
2934;SDS011;2462;51.456;7.248;2024-01-15T13:15:07;3.10;;;2.20;;
2934;SDS011;2462;51.456;7.248;2024-01-15T13:17:36;4.37;;;2.60;;
2934;SDS011;2462;51.456;7.248;2024-01-15T13:20:02;2.47;;;1.67;;
2934;SDS011;2462;51.456;7.248;2024-01-15T13:22:28;2.07;;;1.73;;
2934;SDS011;2462;51.456;7.248;2024-01-15T13:24:57;3.40;;;2.40;;
2934;SDS011;2462;51.456;7.248;2024-01-15T13:27:23;2.20;;;2.00;;
2934;SDS011;2462;51.456;7.248;2024-01-15T13:29:49;2.10;;;1.70;;
2934;SDS011;2462;51.456;7.248;2024-01-15T13:32:17;5.43;;;1.80;;
2934;SDS011;2462;51.456;7.248;2024-01-15T13:34:44;2.07;;;1.90;;
2934;SDS011;2462;51.456;7.248;2024-01-15T13:37:10;3.80;;;2.17;;
2934;SDS011;2462;51.456;7.248;2024-01-15T13:39:37;1.70;;;1.60;;
2934;SDS011;2462;51.456;7.248;2024-01-15T13:42:03;2.03;;;1.80;;
2934;SDS011;2462;51.456;7.248;2024-01-15T13:44:30;3.60;;;1.90;;
2934;SDS011;2462;51.456;7.248;2024-01-15T13:46:57;2.07;;;1.83;;
2934;SDS011;2462;51.456;7.248;2024-01-15T13:49:23;4.00;;;2.07;;
2934;SDS011;2462;51.456;7.248;2024-01-15T13:51:49;1.60;;;1.50;;
2934;SDS011;2462;51.456;7.248;2024-01-15T13:54:15;1.63;;;1.53;;
2934;SDS011;2462;51.456;7.248;2024-01-15T13:56:41;2.03;;;1.83;;
2934;SDS011;2462;51.456;7.248;2024-01-15T13:59:08;2.80;;;1.90;;
2934;SDS011;2462;51.456;7.248;2024-01-15T14:01:34;5.27;;;2.23;;
2934;SDS011;2462;51.456;7.248;2024-01-15T14:04:00;2.87;;;2.57;;
2934;SDS011;2462;51.456;7.248;2024-01-15T14:06:27;4.80;;;1.70;;
2934;SDS011;2462;51.456;7.248;2024-01-15T14:08:53;5.57;;;2.33;;
2934;SDS011;2462;51.456;7.248;2024-01-15T14:11:19;3.67;;;2.10;;
2934;SDS011;2462;51.456;7.248;2024-01-15T14:13:47;5.07;;;2.30;;
2934;SDS011;2462;51.456;7.248;2024-01-15T14:16:13;2.70;;;2.03;;
2934;SDS011;2462;51.456;7.248;2024-01-15T14:18:41;4.40;;;2.20;;
2934;SDS011;2462;51.456;7.248;2024-01-15T14:21:07;3.30;;;2.43;;
2934;SDS011;2462;51.456;7.248;2024-01-15T14:23:33;5.83;;;3.80;;
2934;SDS011;2462;51.456;7.248;2024-01-15T14:25:59;3.97;;;2.97;;
2934;SDS011;2462;51.456;7.248;2024-01-15T14:28:25;3.40;;;2.40;;
2934;SDS011;2462;51.456;7.248;2024-01-15T14:30:51;2.60;;;2.40;;
2934;SDS011;2462;51.456;7.248;2024-01-15T14:33:17;2.40;;;2.20;;
2934;SDS011;2462;51.456;7.248;2024-01-15T14:35:43;4.00;;;2.50;;
2934;SDS011;2462;51.456;7.248;2024-01-15T14:38:09;3.70;;;2.33;;
2934;SDS011;2462;51.456;7.248;2024-01-15T14:40:36;3.00;;;2.33;;
2934;SDS011;2462;51.456;7.248;2024-01-15T14:43:02;4.10;;;2.43;;
2934;SDS011;2462;51.456;7.248;2024-01-15T14:45:28;2.50;;;2.00;;
2934;SDS011;2462;51.456;7.248;2024-01-15T14:47:55;3.23;;;2.23;;
2934;SDS011;2462;51.456;7.248;2024-01-15T14:50:22;2.40;;;2.20;;
2934;SDS011;2462;51.456;7.248;2024-01-15T14:52:48;2.20;;;2.00;;
2934;SDS011;2462;51.456;7.248;2024-01-15T14:55:14;2.97;;;2.30;;
2934;SDS011;2462;51.456;7.248;2024-01-15T14:57:40;2.43;;;2.23;;
2934;SDS011;2462;51.456;7.248;2024-01-15T15:00:06;2.53;;;2.13;;
2934;SDS011;2462;51.456;7.248;2024-01-15T15:02:33;2.90;;;2.60;;
2934;SDS011;2462;51.456;7.248;2024-01-15T15:05:00;3.10;;;2.07;;
2934;SDS011;2462;51.456;7.248;2024-01-15T15:07:26;6.90;;;2.87;;
2934;SDS011;2462;51.456;7.248;2024-01-15T15:09:52;3.63;;;2.20;;
2934;SDS011;2462;51.456;7.248;2024-01-15T15:12:19;2.33;;;2.13;;
2934;SDS011;2462;51.456;7.248;2024-01-15T15:14:45;2.53;;;2.30;;
2934;SDS011;2462;51.456;7.248;2024-01-15T15:17:11;2.33;;;2.23;;
2934;SDS011;2462;51.456;7.248;2024-01-15T15:19:37;3.10;;;2.57;;